createdAt,value
2019-03-09T00:00:48.209Z,1008.21
2019-03-09T00:01:48.182Z,1008.24
2019-03-09T00:02:48.205Z,1008.13
2019-03-09T00:03:48.183Z,1008.13
2019-03-09T00:04:48.147Z,1008.10
2019-03-09T00:05:48.144Z,1008.11
2019-03-09T00:06:48.129Z,1008.06
2019-03-09T00:07:48.139Z,1008.10
2019-03-09T00:08:48.118Z,1008.06
2019-03-09T00:09:48.119Z,1008.07
2019-03-09T00:10:48.086Z,1008.02
2019-03-09T00:11:48.140Z,1008.01
2019-03-09T00:12:48.078Z,1007.95
2019-03-09T00:13:48.054Z,1007.97
2019-03-09T00:14:48.048Z,1007.94
2019-03-09T00:15:48.587Z,1007.90
2019-03-09T00:16:48.022Z,1007.82
2019-03-09T00:17:48.021Z,1007.83
2019-03-09T00:18:47.997Z,1007.81
2019-03-09T00:19:47.989Z,1007.88
2019-03-09T00:20:48.024Z,1007.86
2019-03-09T00:21:47.955Z,1007.78
2019-03-09T00:22:47.973Z,1007.79
2019-03-09T00:23:47.939Z,1007.73
2019-03-09T00:24:47.961Z,1007.71
2019-03-09T00:25:47.934Z,1007.71
2019-03-09T00:26:47.900Z,1007.63
2019-03-09T00:27:47.888Z,1007.66
2019-03-09T00:28:47.903Z,1007.65
2019-03-09T00:29:47.899Z,1007.65
2019-03-09T00:30:47.896Z,1007.64
2019-03-09T00:31:47.865Z,1007.65
2019-03-09T00:32:47.834Z,1007.63
2019-03-09T00:33:47.836Z,1007.59
2019-03-09T00:34:47.838Z,1007.61
2019-03-09T00:35:47.806Z,1007.57
2019-03-09T00:36:47.809Z,1007.59
2019-03-09T00:37:47.790Z,1007.54
2019-03-09T00:38:47.795Z,1007.54
2019-03-09T00:39:47.757Z,1007.51
2019-03-09T00:40:47.749Z,1007.54
2019-03-09T00:41:47.742Z,1007.51
2019-03-09T00:42:47.735Z,1007.45
2019-03-09T00:43:47.751Z,1007.49
2019-03-09T00:44:47.712Z,1007.48
2019-03-09T00:45:47.698Z,1007.51
2019-03-09T00:46:47.691Z,1007.46
2019-03-09T00:47:47.670Z,1007.45
2019-03-09T00:48:47.688Z,1007.37
2019-03-09T00:49:47.677Z,1007.40
2019-03-09T00:50:47.643Z,1007.38
2019-03-09T00:51:47.633Z,1007.42
2019-03-09T00:52:47.611Z,1007.35
2019-03-09T00:53:47.641Z,1007.34
2019-03-09T00:54:47.587Z,1007.31
2019-03-09T00:55:47.601Z,1007.31
2019-03-09T00:56:47.574Z,1007.32
2019-03-09T00:57:47.563Z,1007.28
2019-03-09T00:58:47.566Z,1007.32
2019-03-09T00:59:47.551Z,1007.32
2019-03-09T01:00:47.520Z,1007.29
2019-03-09T01:01:47.522Z,1007.27
2019-03-09T01:02:47.500Z,1007.29
2019-03-09T01:03:47.502Z,1007.26
2019-03-09T01:04:47.487Z,1007.28
2019-03-09T01:05:47.473Z,1007.21
2019-03-09T01:06:47.494Z,1007.21
2019-03-09T01:07:47.442Z,1007.17
2019-03-09T01:08:47.617Z,1007.26
2019-03-09T01:09:47.423Z,1007.26
2019-03-09T01:10:47.419Z,1007.21
2019-03-09T01:11:47.423Z,1007.18
2019-03-09T01:12:47.405Z,1007.14
2019-03-09T01:13:47.377Z,1007.12
2019-03-09T01:14:47.613Z,1007.16
2019-03-09T01:15:47.377Z,1007.14
2019-03-09T01:16:47.351Z,1007.12
2019-03-09T01:17:47.328Z,1007.07
2019-03-09T01:18:47.331Z,1007.04
2019-03-09T01:19:47.333Z,1007.10
2019-03-09T01:20:47.318Z,1007.02
2019-03-09T01:21:47.295Z,1007.07
2019-03-09T01:22:47.295Z,1007.00
2019-03-09T01:23:47.262Z,1006.97
2019-03-09T01:24:47.281Z,1006.92
2019-03-09T01:25:47.250Z,1006.92
2019-03-09T01:26:47.230Z,1006.93
2019-03-09T01:27:47.227Z,1006.90
2019-03-09T01:28:47.263Z,1006.85
2019-03-09T01:29:47.281Z,1006.91
2019-03-09T01:30:47.187Z,1006.85
2019-03-09T01:31:47.187Z,1006.81
2019-03-09T01:32:47.168Z,1006.80
2019-03-09T01:33:47.169Z,1006.77
2019-03-09T01:34:47.176Z,1006.76
2019-03-09T01:35:47.140Z,1006.73
2019-03-09T01:36:47.127Z,1006.75
2019-03-09T01:37:47.123Z,1006.74
2019-03-09T01:38:47.096Z,1006.76
2019-03-09T01:39:47.111Z,1006.72
2019-03-09T01:40:47.077Z,1006.68
2019-03-09T01:41:47.061Z,1006.66
2019-03-09T01:42:47.062Z,1006.64
2019-03-09T01:43:47.041Z,1006.61
2019-03-09T01:44:47.048Z,1006.50
2019-03-09T01:45:47.042Z,1006.46
2019-03-09T01:46:47.019Z,1006.39
2019-03-09T01:47:46.998Z,1006.34
2019-03-09T01:48:46.997Z,1006.28
2019-03-09T01:49:47.001Z,1006.30
2019-03-09T01:50:46.976Z,1006.30
2019-03-09T01:51:46.949Z,1006.27
2019-03-09T01:52:46.939Z,1006.25
2019-03-09T01:53:46.936Z,1006.21
2019-03-09T01:54:46.940Z,1006.18
2019-03-09T01:55:46.937Z,1006.17
2019-03-09T01:56:46.905Z,1006.23
2019-03-09T01:57:46.903Z,1006.16
2019-03-09T01:58:46.872Z,1006.27
2019-03-09T01:59:46.877Z,1006.20
2019-03-09T02:00:46.861Z,1006.21
2019-03-09T02:01:46.856Z,1006.19
2019-03-09T02:02:46.822Z,1006.15
2019-03-09T02:03:46.822Z,1006.23
2019-03-09T02:04:47.150Z,1006.13
2019-03-09T02:05:46.800Z,1006.21
2019-03-09T02:06:46.780Z,1006.09
2019-03-09T02:07:46.784Z,1006.02
2019-03-09T02:08:46.759Z,1006.05
2019-03-09T02:09:46.742Z,1006.04
2019-03-09T02:10:46.745Z,1006.02
2019-03-09T02:12:47.886Z,1005.93
2019-03-09T02:13:46.729Z,1005.99
2019-03-09T02:14:46.691Z,1005.93
2019-03-09T02:15:46.697Z,1005.88
2019-03-09T02:16:46.679Z,1005.89
2019-03-09T02:17:46.653Z,1005.88
2019-03-09T02:18:46.658Z,1005.84
2019-03-09T02:19:46.658Z,1005.83
2019-03-09T02:20:46.641Z,1005.76
2019-03-09T02:21:46.613Z,1005.76
2019-03-09T02:22:46.621Z,1005.80
2019-03-09T02:23:46.591Z,1005.77
2019-03-09T02:24:46.591Z,1005.79
2019-03-09T02:25:46.600Z,1005.72
2019-03-09T02:26:46.556Z,1005.75
2019-03-09T02:27:46.551Z,1005.70
2019-03-09T02:28:46.565Z,1005.69
2019-03-09T02:29:46.527Z,1005.71
2019-03-09T02:30:46.541Z,1005.71
2019-03-09T02:31:46.505Z,1005.63
2019-03-09T02:32:46.546Z,1005.69
2019-03-09T02:33:46.485Z,1005.70
2019-03-09T02:34:46.491Z,1005.63
2019-03-09T02:35:46.526Z,1005.61
2019-03-09T02:36:46.446Z,1005.62
2019-03-09T02:37:46.440Z,1005.56
2019-03-09T02:38:46.423Z,1005.58
2019-03-09T02:39:46.430Z,1005.52
2019-03-09T02:40:46.436Z,1005.52
2019-03-09T02:41:46.411Z,1005.56
2019-03-09T02:42:46.372Z,1005.52
2019-03-09T02:43:46.369Z,1005.46
2019-03-09T02:44:46.356Z,1005.43
2019-03-09T02:45:46.368Z,1005.38
2019-03-09T02:46:46.387Z,1005.43
2019-03-09T02:47:46.334Z,1005.43
2019-03-09T02:48:46.307Z,1005.44
2019-03-09T02:49:46.297Z,1005.45
2019-03-09T02:50:46.327Z,1005.35
2019-03-09T02:51:46.320Z,1005.33
2019-03-09T02:52:46.269Z,1005.29
2019-03-09T02:53:46.251Z,1005.25
2019-03-09T02:54:46.248Z,1005.28
2019-03-09T02:55:46.251Z,1005.22
2019-03-09T02:56:46.233Z,1005.18
2019-03-09T02:57:46.213Z,1005.16
2019-03-09T02:58:46.204Z,1005.10
2019-03-09T02:59:46.229Z,1005.01
2019-03-09T03:00:46.225Z,1005.04
2019-03-09T03:01:46.167Z,1004.96
2019-03-09T03:02:46.183Z,1004.96
2019-03-09T03:03:46.146Z,1004.92
2019-03-09T03:04:46.154Z,1004.97
2019-03-09T03:05:46.118Z,1004.94
2019-03-09T03:06:46.128Z,1004.92
2019-03-09T03:07:46.101Z,1004.96
2019-03-09T03:08:46.086Z,1004.97
2019-03-09T03:09:46.080Z,1004.89
2019-03-09T03:10:46.058Z,1004.92
2019-03-09T03:11:46.096Z,1004.90
2019-03-09T03:12:46.043Z,1004.87
2019-03-09T03:13:46.040Z,1004.83
2019-03-09T03:14:46.033Z,1004.77
2019-03-09T03:15:46.020Z,1004.81
2019-03-09T03:16:46.020Z,1004.73
2019-03-09T03:17:46.021Z,1004.75
2019-03-09T03:18:45.974Z,1004.76
2019-03-09T03:19:45.989Z,1004.70
2019-03-09T03:20:45.976Z,1004.61
2019-03-09T03:21:45.953Z,1004.59
2019-03-09T03:22:45.965Z,1004.56
2019-03-09T03:23:45.926Z,1004.49
2019-03-09T03:24:45.916Z,1004.45
2019-03-09T03:25:45.898Z,1004.40
2019-03-09T03:26:45.901Z,1004.38
2019-03-09T03:27:45.900Z,1004.34
2019-03-09T03:28:45.857Z,1004.30
2019-03-09T03:29:45.848Z,1004.28
2019-03-09T03:30:45.882Z,1004.30
2019-03-09T03:31:45.847Z,1004.25
2019-03-09T03:32:45.904Z,1004.23
2019-03-09T03:33:45.918Z,1004.18
2019-03-09T03:34:45.798Z,1004.15
2019-03-09T03:35:45.783Z,1004.12
2019-03-09T03:36:45.793Z,1004.12
2019-03-09T03:37:45.793Z,1004.09
2019-03-09T03:38:45.761Z,1004.03
2019-03-09T03:39:45.749Z,1004.03
2019-03-09T03:40:45.729Z,1004.01
2019-03-09T03:41:45.721Z,1004.03
2019-03-09T03:42:45.733Z,1004.01
2019-03-09T03:43:45.708Z,1004.02
2019-03-09T03:44:45.682Z,1003.91
2019-03-09T03:45:45.672Z,1003.97
2019-03-09T03:46:45.657Z,1003.89
2019-03-09T03:47:46.144Z,1003.88
2019-03-09T03:48:45.637Z,1003.87
2019-03-09T03:49:45.637Z,1003.86
2019-03-09T03:50:45.619Z,1003.74
2019-03-09T03:51:45.613Z,1003.77
2019-03-09T03:52:45.617Z,1003.75
2019-03-09T03:53:45.619Z,1003.67
2019-03-09T03:54:45.579Z,1003.62
2019-03-09T03:55:45.578Z,1003.63
2019-03-09T03:56:47.427Z,1003.60
2019-03-09T03:57:45.569Z,1003.61
2019-03-09T03:58:45.568Z,1003.61
2019-03-09T03:59:45.512Z,1003.60
2019-03-09T04:00:45.516Z,1003.64
2019-03-09T04:01:45.489Z,1003.59
2019-03-09T04:02:45.480Z,1003.58
2019-03-09T04:03:45.483Z,1003.56
2019-03-09T04:04:45.534Z,1003.52
2019-03-09T04:05:45.454Z,1003.53
2019-03-09T04:06:45.461Z,1003.40
2019-03-09T04:07:45.457Z,1003.42
2019-03-09T04:08:45.441Z,1003.41
2019-03-09T04:09:45.403Z,1003.42
2019-03-09T04:10:45.408Z,1003.36
2019-03-09T04:11:45.387Z,1003.32
2019-03-09T04:12:45.381Z,1003.31
2019-03-09T04:13:45.395Z,1003.24
2019-03-09T04:14:45.345Z,1003.25
2019-03-09T04:15:45.339Z,1003.17
2019-03-09T04:16:45.320Z,1003.24
2019-03-09T04:17:45.321Z,1003.21
2019-03-09T04:18:45.352Z,1003.21
2019-03-09T04:19:45.290Z,1003.22
2019-03-09T04:20:45.274Z,1003.16
2019-03-09T04:21:45.279Z,1003.11
2019-03-09T04:22:45.257Z,1003.08
2019-03-09T04:23:45.269Z,1003.07
2019-03-09T04:24:45.232Z,1003.04
2019-03-09T04:25:45.226Z,1003.00
2019-03-09T04:26:45.214Z,1002.98
2019-03-09T04:27:45.224Z,1002.94
2019-03-09T04:28:45.365Z,1002.97
2019-03-09T04:29:45.194Z,1002.94
2019-03-09T04:30:45.161Z,1002.89
2019-03-09T04:31:45.155Z,1002.88
2019-03-09T04:32:45.144Z,1002.79
2019-03-09T04:33:45.158Z,1002.72
2019-03-09T04:34:45.139Z,1002.78
2019-03-09T04:35:45.108Z,1002.77
2019-03-09T04:36:45.098Z,1002.77
2019-03-09T04:37:45.089Z,1002.75
2019-03-09T04:38:45.094Z,1002.80
2019-03-09T04:39:45.066Z,1002.73
2019-03-09T04:40:45.061Z,1002.68
2019-03-09T04:41:45.048Z,1002.61
2019-03-09T04:42:45.046Z,1002.62
2019-03-09T04:43:45.054Z,1002.57
2019-03-09T04:44:45.030Z,1002.51
2019-03-09T04:45:45.008Z,1002.52
2019-03-09T04:46:44.997Z,1002.43
2019-03-09T04:47:44.975Z,1002.46
2019-03-09T04:48:44.960Z,1002.38
2019-03-09T04:49:44.981Z,1002.36
2019-03-09T04:50:44.950Z,1002.37
2019-03-09T04:51:44.946Z,1002.27
2019-03-09T04:52:44.917Z,1002.17
2019-03-09T04:53:44.902Z,1002.14
2019-03-09T04:54:44.917Z,1002.18
2019-03-09T04:55:44.891Z,1002.11
2019-03-09T04:56:44.876Z,1002.07
2019-03-09T04:57:44.874Z,1002.05
2019-03-09T04:58:44.858Z,1002.05
2019-03-09T04:59:44.855Z,1002.10
2019-03-09T05:00:44.838Z,1002.07
2019-03-09T05:01:44.821Z,1002.00
2019-03-09T05:02:44.808Z,1002.00
2019-03-09T05:03:44.808Z,1002.00
2019-03-09T05:04:44.835Z,1001.96
2019-03-09T05:05:44.774Z,1001.92
2019-03-09T05:06:44.764Z,1001.87
2019-03-09T05:07:44.762Z,1001.85
2019-03-09T05:08:44.756Z,1001.84
2019-03-09T05:09:44.759Z,1001.83
2019-03-09T05:10:44.718Z,1001.81
2019-03-09T05:11:44.710Z,1001.84
2019-03-09T05:12:44.712Z,1001.75
2019-03-09T05:13:44.686Z,1001.73
2019-03-09T05:14:44.684Z,1001.66
2019-03-09T05:15:44.654Z,1001.62
2019-03-09T05:16:44.657Z,1001.59
2019-03-09T05:17:44.635Z,1001.52
2019-03-09T05:18:44.632Z,1001.60
2019-03-09T05:19:44.636Z,1001.56
2019-03-09T05:20:44.623Z,1001.53
2019-03-09T05:21:44.593Z,1001.53
2019-03-09T05:22:44.578Z,1001.49
2019-03-09T05:23:44.573Z,1001.53
2019-03-09T05:24:44.590Z,1001.43
2019-03-09T05:25:44.554Z,1001.38
2019-03-09T05:26:45.114Z,1001.43
2019-03-09T05:27:44.522Z,1001.31
2019-03-09T05:28:44.517Z,1001.25
2019-03-09T05:29:44.535Z,1001.24
2019-03-09T05:30:44.494Z,1001.24
2019-03-09T05:31:44.495Z,1001.24
2019-03-09T05:32:44.471Z,1001.25
2019-03-09T05:33:44.461Z,1001.19
2019-03-09T05:34:44.492Z,1001.16
2019-03-09T05:35:44.437Z,1001.11
2019-03-09T05:36:44.425Z,1000.99
2019-03-09T05:37:44.431Z,1001.11
2019-03-09T05:38:44.398Z,1001.05
2019-03-09T05:39:44.387Z,1001.07
2019-03-09T05:40:44.408Z,1001.00
2019-03-09T05:41:44.376Z,1000.98
2019-03-09T05:42:44.362Z,1001.02
2019-03-09T05:43:44.344Z,1000.98
2019-03-09T05:44:44.332Z,1000.90
2019-03-09T05:45:44.373Z,1000.94
2019-03-09T05:46:44.322Z,1000.89
2019-03-09T05:47:44.319Z,1000.94
2019-03-09T05:48:44.302Z,1000.84
2019-03-09T05:49:44.276Z,1000.83
2019-03-09T05:50:44.281Z,1000.81
2019-03-09T05:51:44.251Z,1000.79
2019-03-09T05:52:44.246Z,1000.80
2019-03-09T05:53:44.252Z,1000.69
2019-03-09T05:54:44.222Z,1000.74
2019-03-09T05:55:44.244Z,1000.76
2019-03-09T05:56:44.197Z,1000.77
2019-03-09T05:57:44.197Z,1000.64
2019-03-09T05:58:44.180Z,1000.63
2019-03-09T05:59:44.172Z,1000.67
2019-03-09T06:00:44.179Z,1000.63
2019-03-09T06:01:44.144Z,1000.64
2019-03-09T06:02:44.131Z,1000.72
2019-03-09T06:03:44.140Z,1000.66
2019-03-09T06:04:44.120Z,1000.67
2019-03-09T06:05:44.128Z,1000.64
2019-03-09T06:06:44.094Z,1000.53
2019-03-09T06:07:44.081Z,1000.59
2019-03-09T06:08:44.061Z,1000.65
2019-03-09T06:09:44.051Z,1000.65
2019-03-09T06:10:44.069Z,1000.64
2019-03-09T06:11:44.027Z,1000.53
2019-03-09T06:12:44.030Z,1000.55
2019-03-09T06:13:44.003Z,1000.57
2019-03-09T06:14:44.002Z,1000.55
2019-03-09T06:15:44.007Z,1000.64
2019-03-09T06:16:44.001Z,1000.59
2019-03-09T06:17:43.966Z,1000.49
2019-03-09T06:18:43.952Z,1000.54
2019-03-09T06:19:43.939Z,1000.47
2019-03-09T06:20:43.944Z,1000.51
2019-03-09T06:21:43.948Z,1000.47
2019-03-09T06:22:43.923Z,1000.47
2019-03-09T06:23:43.903Z,1000.47
2019-03-09T06:24:43.889Z,1000.43
2019-03-09T06:25:43.876Z,1000.37
2019-03-09T06:26:43.888Z,1000.40
2019-03-09T06:27:43.862Z,1000.42
2019-03-09T06:28:43.859Z,1000.35
2019-03-09T06:29:43.827Z,1000.35
2019-03-09T06:30:43.840Z,1000.32
2019-03-09T06:31:43.840Z,1000.29
2019-03-09T06:32:43.801Z,1000.29
2019-03-09T06:33:43.808Z,1000.25
2019-03-09T06:34:43.777Z,1000.34
2019-03-09T06:35:43.760Z,1000.32
2019-03-09T06:36:43.776Z,1000.27
2019-03-09T06:37:43.754Z,1000.30
2019-03-09T06:38:43.743Z,1000.16
2019-03-09T06:39:43.729Z,1000.22
2019-03-09T06:40:43.706Z,1000.31
2019-03-09T06:41:43.742Z,1000.17
2019-03-09T06:42:43.684Z,1000.13
2019-03-09T06:43:43.687Z,1000.14
2019-03-09T06:44:43.677Z,1000.21
2019-03-09T06:45:43.662Z,1000.04
2019-03-09T06:46:43.676Z,1000.04
2019-03-09T06:47:43.636Z,1000.04
2019-03-09T06:48:43.626Z,1000.04
2019-03-09T06:49:43.610Z,1000.05
2019-03-09T06:50:43.623Z,1000.04
2019-03-09T06:51:43.612Z,1000.06
2019-03-09T06:52:43.570Z,1000.06
2019-03-09T06:53:43.612Z,1000.12
2019-03-09T06:54:43.558Z,1000.05
2019-03-09T06:55:43.559Z,1000.08
2019-03-09T06:56:43.553Z,1000.02
2019-03-09T06:57:43.515Z,1000.17
2019-03-09T06:58:43.513Z,999.88
2019-03-09T06:59:43.497Z,999.90
2019-03-09T07:00:43.514Z,999.83
2019-03-09T07:01:43.494Z,999.89
2019-03-09T07:02:43.476Z,999.95
2019-03-09T07:03:43.449Z,999.91
2019-03-09T07:04:44.109Z,999.87
2019-03-09T07:05:43.436Z,999.87
2019-03-09T07:06:43.447Z,999.80
2019-03-09T07:07:43.427Z,999.88
2019-03-09T07:08:43.391Z,999.84
2019-03-09T07:09:43.387Z,999.82
2019-03-09T07:10:43.367Z,999.93
2019-03-09T07:11:43.368Z,999.85
2019-03-09T07:12:43.373Z,999.84
2019-03-09T07:13:52.404Z,999.84
2019-03-09T07:14:44.330Z,999.71
2019-03-09T07:15:43.323Z,999.67
2019-03-09T07:16:43.295Z,999.68
2019-03-09T07:17:43.322Z,999.63
2019-03-09T07:18:43.301Z,999.60
2019-03-09T07:19:43.281Z,999.52
2019-03-09T07:20:43.259Z,999.45
2019-03-09T07:21:43.251Z,999.54
2019-03-09T07:22:43.688Z,999.54
2019-03-09T07:23:43.233Z,999.51
2019-03-09T07:24:43.224Z,999.57
2019-03-09T07:25:43.198Z,999.61
2019-03-09T07:26:43.197Z,999.66
2019-03-09T07:27:43.204Z,999.69
2019-03-09T07:28:43.186Z,999.62
2019-03-09T07:29:43.165Z,999.71
2019-03-09T07:30:43.159Z,999.56
2019-03-09T07:31:44.101Z,999.54
2019-03-09T07:32:43.147Z,999.54
2019-03-09T07:33:43.112Z,999.54
2019-03-09T07:34:43.118Z,999.52
2019-03-09T07:35:43.107Z,999.62
2019-03-09T07:36:43.080Z,999.59
2019-03-09T07:37:43.116Z,999.62
2019-03-09T07:38:43.067Z,999.63
2019-03-09T07:39:43.055Z,999.54
2019-03-09T07:40:43.042Z,999.44
2019-03-09T07:41:43.027Z,999.49
2019-03-09T07:42:43.010Z,999.47
2019-03-09T07:43:43.017Z,999.54
2019-03-09T07:44:42.991Z,999.51
2019-03-09T07:45:42.976Z,999.59
2019-03-09T07:46:42.969Z,999.52
2019-03-09T07:47:42.964Z,999.32
2019-03-09T07:48:42.972Z,999.33
2019-03-09T07:49:42.935Z,999.29
2019-03-09T07:50:42.917Z,999.56
2019-03-09T07:51:42.908Z,999.58
2019-03-09T07:52:42.919Z,999.40
2019-03-09T07:53:42.972Z,999.47
2019-03-09T07:54:42.875Z,999.37
2019-03-09T07:55:42.858Z,999.50
2019-03-09T07:56:42.862Z,999.37
2019-03-09T07:57:42.853Z,999.40
2019-03-09T07:58:42.863Z,999.46
2019-03-09T07:59:42.815Z,999.48
2019-03-09T08:00:42.808Z,999.53
2019-03-09T08:01:42.795Z,999.55
2019-03-09T08:02:42.796Z,999.57
2019-03-09T08:03:42.807Z,999.62
2019-03-09T08:04:42.776Z,999.66
2019-03-09T08:05:42.873Z,999.61
2019-03-09T08:06:42.738Z,999.58
2019-03-09T08:07:42.733Z,999.58
2019-03-09T08:08:43.628Z,999.60
2019-03-09T08:09:44.172Z,999.61
2019-03-09T08:10:42.784Z,999.60
2019-03-09T08:11:42.688Z,999.67
2019-03-09T08:12:42.778Z,999.72
2019-03-09T08:13:43.188Z,999.75
2019-03-09T08:14:42.658Z,999.81
2019-03-09T08:15:42.643Z,999.74
2019-03-09T08:16:42.646Z,999.83
2019-03-09T08:17:42.626Z,999.80
2019-03-09T08:18:42.640Z,999.80
2019-03-09T08:19:42.615Z,999.84
2019-03-09T08:20:42.604Z,999.83
2019-03-09T08:21:42.587Z,999.79
2019-03-09T08:22:42.573Z,999.95
2019-03-09T08:23:42.609Z,999.84
2019-03-09T08:24:42.534Z,999.83
2019-03-09T08:25:42.537Z,999.89
2019-03-09T08:26:42.528Z,999.81
2019-03-09T08:27:42.523Z,999.80
2019-03-09T08:28:42.491Z,999.91
2019-03-09T08:29:42.504Z,999.96
2019-03-09T08:30:42.479Z,1000.04
2019-03-09T08:31:42.475Z,1000.14
2019-03-09T08:32:42.475Z,999.99
2019-03-09T08:33:42.437Z,1000.04
2019-03-09T08:34:42.548Z,1000.01
2019-03-09T08:35:42.434Z,1000.07
2019-03-09T08:36:42.417Z,1000.01
2019-03-09T08:37:42.405Z,1000.02
2019-03-09T08:38:42.421Z,1000.06
2019-03-09T08:39:42.405Z,999.99
2019-03-09T08:40:42.861Z,999.95
2019-03-09T08:41:42.356Z,1000.11
2019-03-09T08:42:42.345Z,1000.11
2019-03-09T08:43:42.350Z,1000.13
2019-03-09T08:44:42.332Z,1000.12
2019-03-09T08:45:42.357Z,1000.16
2019-03-09T08:46:42.306Z,1000.17
2019-03-09T08:47:51.602Z,1000.23
2019-03-09T08:48:43.286Z,1000.29
2019-03-09T08:49:42.266Z,1000.35
2019-03-09T08:50:42.308Z,1000.37
2019-03-09T08:51:42.236Z,1000.32
2019-03-09T08:52:42.238Z,1000.33
2019-03-09T08:53:42.235Z,1000.29
2019-03-09T08:54:42.209Z,1000.34
2019-03-09T08:55:42.233Z,1000.31
2019-03-09T08:56:42.180Z,1000.37
2019-03-09T08:57:42.165Z,1000.34
2019-03-09T08:58:42.157Z,1000.33
2019-03-09T08:59:42.194Z,1000.37
2019-03-09T09:00:42.155Z,1000.39
2019-03-09T09:01:42.166Z,1000.44
2019-03-09T09:02:42.111Z,1000.52
2019-03-09T09:03:42.109Z,1000.48
2019-03-09T09:04:42.095Z,1000.62
2019-03-09T09:05:42.105Z,1000.56
2019-03-09T09:06:42.078Z,1000.50
2019-03-09T09:07:42.052Z,1000.51
2019-03-09T09:08:42.041Z,1000.25
2019-03-09T09:09:42.030Z,1000.33
2019-03-09T09:10:42.050Z,1000.35
2019-03-09T09:11:42.146Z,1000.27
2019-03-09T09:12:42.017Z,1000.25
2019-03-09T09:13:42.010Z,1000.21
2019-03-09T09:14:41.974Z,1000.22
2019-03-09T09:15:42.006Z,1000.23
2019-03-09T09:16:41.961Z,1000.26
2019-03-09T09:17:41.944Z,1000.23
2019-03-09T09:18:41.974Z,1000.29
2019-03-09T09:19:41.976Z,1000.22
2019-03-09T09:20:41.928Z,1000.30
2019-03-09T09:21:41.904Z,1000.25
2019-03-09T09:22:41.887Z,1000.31
2019-03-09T09:23:41.908Z,1000.27
2019-03-09T09:24:41.910Z,1000.27
2019-03-09T09:25:41.849Z,1000.28
2019-03-09T09:26:41.864Z,1000.33
2019-03-09T09:27:41.837Z,1000.23
2019-03-09T09:28:41.827Z,1000.30
2019-03-09T09:29:41.857Z,1000.36
2019-03-09T09:30:41.804Z,1000.30
2019-03-09T09:31:41.858Z,1000.28
2019-03-09T09:32:41.780Z,1000.38
2019-03-09T09:33:41.768Z,1000.38
2019-03-09T09:34:41.766Z,1000.37
2019-03-09T09:35:41.777Z,1000.42
2019-03-09T09:36:41.732Z,1000.31
2019-03-09T09:37:41.726Z,1000.42
2019-03-09T09:38:41.712Z,1000.50
2019-03-09T09:39:41.698Z,1000.50
2019-03-09T09:40:41.710Z,1000.47
2019-03-09T09:41:41.669Z,1000.58
2019-03-09T09:42:41.717Z,1000.60
2019-03-09T09:43:41.646Z,1000.50
2019-03-09T09:44:41.648Z,1000.55
2019-03-09T09:45:41.653Z,1000.58
2019-03-09T09:46:41.632Z,1000.64
2019-03-09T09:47:42.604Z,1000.60
2019-03-09T09:48:41.611Z,1000.65
2019-03-09T09:49:41.583Z,1000.71
2019-03-09T09:50:41.603Z,1000.80
2019-03-09T09:51:41.580Z,1000.87
2019-03-09T09:52:41.564Z,1000.78
2019-03-09T09:53:41.546Z,1000.85
2019-03-09T09:54:41.520Z,1000.73
2019-03-09T09:55:41.536Z,1000.81
2019-03-09T09:56:41.519Z,1000.76
2019-03-09T09:57:41.516Z,1000.85
2019-03-09T09:58:41.482Z,1000.74
2019-03-09T09:59:41.477Z,1000.78
2019-03-09T10:00:41.457Z,1000.72
2019-03-09T10:01:41.477Z,1000.69
2019-03-09T10:02:41.464Z,1000.63
2019-03-09T10:03:41.449Z,1000.65
2019-03-09T10:04:41.412Z,1000.61
2019-03-09T10:05:41.416Z,1000.75
2019-03-09T10:06:41.392Z,1000.62
2019-03-09T10:07:41.412Z,1000.66
2019-03-09T10:08:41.386Z,1000.66
2019-03-09T10:09:41.353Z,1000.82
2019-03-09T10:10:41.363Z,1000.78
2019-03-09T10:11:41.334Z,1000.77
2019-03-09T10:12:41.344Z,1000.61
2019-03-09T10:13:41.320Z,1000.68
2019-03-09T10:14:41.310Z,1000.59
2019-03-09T10:15:41.310Z,1000.57
2019-03-09T10:16:41.284Z,1000.73
2019-03-09T10:17:41.304Z,1000.64
2019-03-09T10:18:42.196Z,1000.94
2019-03-09T10:19:41.287Z,1000.80
2019-03-09T10:20:41.275Z,1000.95
2019-03-09T10:21:41.220Z,1000.89
2019-03-09T10:22:41.232Z,1000.87
2019-03-09T10:23:41.208Z,1000.94
2019-03-09T10:24:41.221Z,1000.85
2019-03-09T10:25:41.216Z,1000.93
2019-03-09T10:26:41.211Z,1000.94
2019-03-09T10:27:41.206Z,1001.07
2019-03-09T10:28:41.160Z,1000.80
2019-03-09T10:29:41.171Z,1000.83
2019-03-09T10:30:41.172Z,1000.66
2019-03-09T10:31:41.154Z,1000.70
2019-03-09T10:32:41.172Z,1000.95
2019-03-09T10:33:41.093Z,1000.94
2019-03-09T10:34:41.074Z,1000.87
2019-03-09T10:35:41.064Z,1000.98
2019-03-09T10:36:41.070Z,1001.10
2019-03-09T10:37:41.074Z,1001.09
2019-03-09T10:38:41.027Z,1001.24
2019-03-09T10:39:41.019Z,1000.94
2019-03-09T10:40:41.016Z,1000.96
2019-03-09T10:41:41.033Z,1000.89
2019-03-09T10:42:41.021Z,1001.12
2019-03-09T10:43:40.998Z,1001.09
2019-03-09T10:44:40.962Z,1001.17
2019-03-09T10:45:40.955Z,1001.23
2019-03-09T10:46:40.983Z,1001.25
2019-03-09T10:47:40.930Z,1001.35
2019-03-09T10:48:40.951Z,1001.14
2019-03-09T10:49:40.900Z,1001.24
2019-03-09T10:50:40.907Z,1001.17
2019-03-09T10:51:40.879Z,1001.17
2019-03-09T10:52:40.870Z,1001.23
2019-03-09T10:53:40.877Z,1001.22
2019-03-09T10:54:40.859Z,1001.25
2019-03-09T10:55:42.510Z,1001.25
2019-03-09T10:56:40.855Z,1001.31
2019-03-09T10:57:40.833Z,1001.15
2019-03-09T10:58:40.803Z,1001.24
2019-03-09T10:59:40.810Z,1001.26
2019-03-09T11:00:40.800Z,1001.34
2019-03-09T11:01:40.771Z,1001.19
2019-03-09T11:02:40.753Z,1001.15
2019-03-09T11:03:40.748Z,1001.28
2019-03-09T11:04:40.777Z,1001.26
2019-03-09T11:05:40.738Z,1001.29
2019-03-09T11:06:40.706Z,1001.33
2019-03-09T11:07:40.708Z,1001.27
2019-03-09T11:08:40.691Z,1001.41
2019-03-09T11:09:40.709Z,1001.35
2019-03-09T11:10:40.696Z,1001.35
2019-03-09T11:11:40.688Z,1001.42
2019-03-09T11:12:40.646Z,1001.36
2019-03-09T11:13:40.633Z,1001.45
2019-03-09T11:14:40.643Z,1001.34
2019-03-09T11:15:40.642Z,1001.30
2019-03-09T11:16:40.658Z,1001.41
2019-03-09T11:17:40.589Z,1001.32
2019-03-09T11:18:40.573Z,1001.28
2019-03-09T11:19:40.562Z,1001.26
2019-03-09T11:20:40.586Z,1001.35
2019-03-09T11:21:40.541Z,1001.48
2019-03-09T11:22:40.546Z,1001.27
2019-03-09T11:23:40.564Z,1001.24
2019-03-09T11:24:40.502Z,1001.29
2019-03-09T11:25:40.528Z,1001.27
2019-03-09T11:26:40.492Z,1001.44
2019-03-09T11:27:40.709Z,1001.40
2019-03-09T11:28:40.484Z,1001.25
2019-03-09T11:29:40.452Z,1001.25
2019-03-09T11:30:40.459Z,1001.30
2019-03-09T11:31:40.442Z,1001.32
2019-03-09T11:32:40.466Z,1001.32
2019-03-09T11:33:40.430Z,1001.22
2019-03-09T11:34:40.398Z,1001.21
2019-03-09T11:35:40.406Z,1001.30
2019-03-09T11:36:40.384Z,1001.28
2019-03-09T11:37:40.384Z,1001.37
2019-03-09T11:38:40.361Z,1001.07
2019-03-09T11:39:40.348Z,1001.13
2019-03-09T11:40:40.328Z,1001.14
2019-03-09T11:41:40.318Z,1000.95
2019-03-09T11:42:41.250Z,1000.92
2019-03-09T11:43:40.300Z,1000.97
2019-03-09T11:44:40.307Z,1001.12
2019-03-09T11:45:40.288Z,1001.02
2019-03-09T11:46:40.264Z,1001.18
2019-03-09T11:47:40.266Z,1001.07
2019-03-09T11:48:40.263Z,1001.06
2019-03-09T11:49:40.234Z,1001.02
2019-03-09T11:50:40.246Z,1001.08
2019-03-09T11:51:40.349Z,1001.30
2019-03-09T11:52:41.174Z,1001.46
2019-03-09T11:53:40.174Z,1001.12
2019-03-09T11:54:40.166Z,1001.21
2019-03-09T11:55:40.175Z,1001.13
2019-03-09T11:56:40.239Z,1001.01
2019-03-09T11:57:40.133Z,1000.95
2019-03-09T11:58:40.140Z,1001.00
2019-03-09T11:59:40.110Z,1000.91
2019-03-09T12:00:40.111Z,1000.91
2019-03-09T12:01:40.110Z,1001.08
2019-03-09T12:02:40.119Z,1001.04
2019-03-09T12:03:40.069Z,1001.03
2019-03-09T12:04:46.763Z,1000.91
2019-03-09T12:05:41.072Z,1000.99
2019-03-09T12:06:40.047Z,1001.21
2019-03-09T12:07:40.049Z,1001.05
2019-03-09T12:08:40.012Z,1001.14
2019-03-09T12:09:40.003Z,1001.05